Time;durP1;ratioP1;P1;durP2;ratioP2;P2;SDS_P1;SDS_P2;PMS_P1;PMS_P2;Temp;Humidity;BMP_temperature;BMP_pressure;BME280_temperature;BME280_humidity;BME280_pressure;Samples;Min_cycle;Max_cycle;Signal;HPM_P1;HPM_P2
2021/11/10 00:02:06;;;;;;;1999.90;999.90;;;;;;;5.58;100.00;97377.69;5090575;28;20203;-69
2021/11/10 00:04:33;;;;;;;1999.90;999.90;;;;;;;5.60;100.00;97383.41;5090731;28;20199;-68
2021/11/10 00:07:02;;;;;;;1999.90;999.90;;;;;;;5.57;100.00;97365.81;5090506;28;20232;-69
2021/11/10 00:09:29;;;;;;;1999.90;999.90;;;;;;;5.57;100.00;97371.75;5090520;28;20202;-68
2021/11/10 00:11:58;;;;;;;1999.90;999.90;;;;;;;5.56;100.00;97382.28;5090489;28;20204;-69
2021/11/10 00:14:25;;;;;;;1999.90;999.90;;;;;;;5.54;100.00;97379.13;5090276;28;20258;-68
2021/11/10 00:16:55;;;;;;;1999.90;999.90;;;;;;;5.57;100.00;97376.91;5090746;28;20200;-69
2021/11/10 00:19:22;;;;;;;1999.90;999.90;;;;;;;5.47;100.00;97388.72;5090667;28;20193;-68
2021/11/10 00:21:50;;;;;;;1999.90;999.90;;;;;;;5.41;100.00;97387.00;5090823;28;20645;-68
2021/11/10 00:24:18;;;;;;;1999.90;999.90;;;;;;;5.39;100.00;97388.97;5090301;28;20196;-68
2021/11/10 00:26:46;;;;;;;1999.90;999.90;;;;;;;5.34;100.00;97397.34;5090116;28;20195;-68
2021/11/10 00:29:13;;;;;;;1999.90;999.90;;;;;;;5.26;100.00;97394.28;5090689;28;20183;-68
2021/11/10 00:31:40;;;;;;;1999.90;999.90;;;;;;;5.35;100.00;97387.84;5090219;28;20249;-68
2021/11/10 00:34:07;;;;;;;1999.90;999.90;;;;;;;5.25;100.00;97385.75;5090532;28;20227;-68
2021/11/10 00:36:34;;;;;;;1999.90;999.90;;;;;;;5.09;100.00;97404.31;5090250;28;20226;-68
2021/11/10 00:39:02;;;;;;;1999.90;999.90;;;;;;;5.13;100.00;97397.78;5090401;28;20223;-68
2021/11/10 00:41:30;;;;;;;1999.90;999.90;;;;;;;5.12;100.00;97393.63;5090451;28;20192;-68
2021/11/10 00:44:00;;;;;;;1999.90;999.90;;;;;;;5.01;100.00;97407.97;5090682;28;20200;-69
2021/11/10 00:46:29;;;;;;;1999.90;999.90;;;;;;;5.00;100.00;97400.44;5094639;28;20230;-68
2021/11/10 00:48:57;;;;;;;1999.90;999.90;;;;;;;5.00;100.00;97395.28;5093171;28;20199;-68
2021/11/10 00:51:24;;;;;;;1999.90;999.90;;;;;;;5.00;100.00;97401.22;5094275;28;20207;-68
2021/11/10 00:53:51;;;;;;;1999.90;999.90;;;;;;;4.95;100.00;97390.75;5094047;28;20272;-68
2021/11/10 00:56:19;;;;;;;1999.90;999.90;;;;;;;4.93;100.00;97397.91;5094430;28;20199;-68
2021/11/10 00:58:47;;;;;;;1999.90;999.90;;;;;;;4.85;100.00;97398.19;5094148;28;20675;-68
2021/11/10 01:01:15;;;;;;;1999.90;999.90;;;;;;;4.77;100.00;97390.72;5094059;28;20200;-68
2021/11/10 01:03:42;;;;;;;1999.90;999.90;;;;;;;4.75;100.00;97397.84;5094262;28;20191;-68
2021/11/10 01:06:09;;;;;;;1999.90;999.90;;;;;;;4.79;100.00;97391.28;5093351;28;20211;-68
2021/11/10 01:08:36;;;;;;;1999.90;999.90;;;;;;;4.68;100.00;97402.28;5094299;28;20202;-68
2021/11/10 01:11:03;;;;;;;1999.90;999.90;;;;;;;4.62;100.00;97398.75;5093700;28;20203;-68
2021/11/10 01:13:31;;;;;;;1999.90;999.90;;;;;;;4.58;100.00;97401.94;5093673;28;20231;-68
2021/11/10 01:15:59;;;;;;;1999.90;999.90;;;;;;;4.55;100.00;97397.19;5093880;28;20200;-68
2021/11/10 01:18:26;;;;;;;1999.90;999.90;;;;;;;4.46;100.00;97399.22;5093638;28;20230;-68
2021/11/10 01:20:53;;;;;;;1999.90;999.90;;;;;;;4.44;100.00;97396.06;5093979;28;20210;-68
2021/11/10 01:23:20;;;;;;;1999.90;999.90;;;;;;;4.38;100.00;97402.06;5093573;28;20196;-68
2021/11/10 01:25:48;;;;;;;1999.90;999.90;;;;;;;4.39;100.00;97403.63;5093949;28;20280;-68
2021/11/10 01:28:15;;;;;;;1999.90;999.90;;;;;;;4.42;100.00;97405.00;5093541;28;20243;-68
2021/11/10 01:30:42;;;;;;;1999.90;999.90;;;;;;;4.37;100.00;97409.97;5093510;28;20200;-68
2021/11/10 01:33:11;;;;;;;1999.90;999.90;;;;;;;4.34;100.00;97409.38;5093394;28;20611;-68
2021/11/10 01:35:38;;;;;;;1999.90;999.90;;;;;;;4.36;100.00;97413.53;5093368;28;20196;-68
2021/11/10 01:38:05;;;;;;;1999.90;999.90;;;;;;;4.40;100.00;97406.97;5093701;28;20200;-68
2021/11/10 01:40:32;;;;;;;1999.90;999.90;;;;;;;4.43;100.00;97419.47;5093735;28;20629;-68
2021/11/10 01:43:06;;;;;;;1999.90;999.90;;;;;;;4.47;100.00;97420.63;5093300;28;20207;-69
2021/11/10 01:45:33;;;;;;;1999.90;999.90;;;;;;;4.60;100.00;97420.53;5093528;28;20195;-68
2021/11/10 01:48:00;;;;;;;1999.90;999.90;;;;;;;4.57;100.00;97413.22;5093122;28;20695;-68
2021/11/10 01:50:28;;;;;;;1999.90;999.90;;;;;;;4.66;100.00;97425.66;5093216;28;20196;-68
2021/11/10 01:52:55;;;;;;;1999.90;999.90;;;;;;;4.75;100.00;97419.25;5093291;28;20200;-68
2021/11/10 01:55:22;;;;;;;1999.90;999.90;;;;;;;4.78;100.00;97421.41;5092715;28;20200;-68
2021/11/10 01:57:50;;;;;;;1999.90;999.90;;;;;;;4.86;100.00;97415.22;5092778;28;20695;-68
2021/11/10 02:00:19;;;;;;;1999.90;999.90;;;;;;;4.96;100.00;97418.13;5092982;28;20196;-69
2021/11/10 02:02:47;;;;;;;1999.90;999.90;;;;;;;5.11;100.00;97415.22;5092861;28;20241;-68
2021/11/10 02:05:16;;;;;;;1999.90;999.90;;;;;;;5.33;100.00;97405.31;5093157;28;20200;-69
2021/11/10 02:07:46;;;;;;;1999.90;999.90;;;;;;;5.28;100.00;97411.09;5092850;28;20203;-69
2021/11/10 02:10:18;;;;;;;1999.90;999.90;;;;;;;5.41;100.00;97407.63;5093070;28;20197;-68
2021/11/10 02:12:46;;;;;;;1999.90;999.90;;;;;;;5.42;100.00;97414.34;5092965;28;20267;-68
2021/11/10 02:15:16;;;;;;;1999.90;999.90;;;;;;;5.40;100.00;97417.13;5093303;28;20222;-69
2021/11/10 02:17:46;;;;;;;1999.90;999.90;;;;;;;5.56;100.00;97421.75;5093150;28;20202;-68
2021/11/10 02:20:13;;;;;;;1999.90;999.90;;;;;;;5.58;100.00;97419.72;5092590;28;20184;-69
2021/11/10 02:22:42;;;;;;;1999.90;999.90;;;;;;;5.56;100.00;97420.97;5092510;28;20680;-69
2021/11/10 02:25:11;;;;;;;1999.90;999.90;;;;;;;5.49;100.00;97425.38;5092502;28;20231;-68
2021/11/10 02:27:40;;;;;;;1999.90;999.90;;;;;;;5.44;100.00;97420.06;5092302;28;20233;-68
2021/11/10 02:30:10;;;;;;;1999.90;999.90;;;;;;;5.51;100.00;97418.22;5092598;28;20192;-68
2021/11/10 02:32:38;;;;;;;1999.90;999.90;;;;;;;5.51;100.00;97419.03;5092816;28;20187;-68
2021/11/10 02:35:06;;;;;;;1999.90;999.90;;;;;;;5.64;100.00;97418.09;5092323;28;20228;-68
2021/11/10 02:37:35;;;;;;;1999.90;999.90;;;;;;;5.75;100.00;97421.75;5092295;28;20295;-68
2021/11/10 02:40:04;;;;;;;1999.90;999.90;;;;;;;5.74;100.00;97422.75;5092157;28;20683;-68
2021/11/10 02:42:31;;;;;;;1999.90;999.90;;;;;;;5.77;100.00;97420.56;5092732;28;20579;-68
2021/11/10 02:44:58;;;;;;;1999.90;999.90;;;;;;;5.85;100.00;97422.84;5092300;28;20196;-69
2021/11/10 02:47:26;;;;;;;1999.90;999.90;;;;;;;5.91;100.00;97423.78;5092375;28;20206;-68
2021/11/10 02:49:53;;;;;;;1999.90;999.90;;;;;;;5.94;100.00;97425.94;5091967;28;20249;-68
2021/11/10 02:52:21;;;;;;;1999.90;999.90;;;;;;;5.90;100.00;97423.00;5092404;28;20204;-68
2021/11/10 02:54:51;;;;;;;1999.90;999.90;;;;;;;5.95;100.00;97425.72;5091665;28;20307;-69
2021/11/10 02:57:21;;;;;;;1999.90;999.90;;;;;;;5.94;100.00;97423.34;5092082;28;20613;-69
2021/11/10 02:59:48;;;;;;;1999.90;999.90;;;;;;;5.90;100.00;97427.38;5091855;28;20264;-68
2021/11/10 03:02:23;;;;;;;1999.90;999.90;;;;;;;5.84;100.00;97431.56;5091979;28;20199;-68
2021/11/10 03:04:50;;;;;;;1999.90;999.90;;;;;;;5.89;100.00;97424.00;5091794;28;20221;-68
2021/11/10 03:07:17;;;;;;;1999.90;999.90;;;;;;;5.96;100.00;97434.25;5090773;28;20192;-68
2021/11/10 03:09:45;;;;;;;1999.90;999.90;;;;;;;5.95;100.00;97423.16;5091192;28;20211;-68
2021/11/10 03:12:13;;;;;;;1999.90;999.90;;;;;;;6.00;100.00;97425.88;5091691;28;20204;-68
2021/11/10 03:14:44;;;;;;;1999.90;999.90;;;;;;;5.90;100.00;97428.16;5091261;28;20261;-68
2021/11/10 03:17:14;;;;;;;1999.90;999.90;;;;;;;5.96;100.00;97435.06;5091716;28;20606;-68
2021/11/10 03:19:42;;;;;;;1999.90;999.90;;;;;;;6.02;100.00;97434.19;5091693;28;20192;-68
2021/11/10 03:22:10;;;;;;;1999.90;999.90;;;;;;;6.08;100.00;97434.34;5091562;28;20252;-67
2021/11/10 03:24:38;;;;;;;1999.90;999.90;;;;;;;6.15;100.00;97440.19;5091505;28;20223;-68
2021/11/10 03:27:06;;;;;;;1999.90;999.90;;;;;;;6.18;100.00;97432.00;5091224;28;20231;-68
2021/11/10 03:29:34;;;;;;;1999.90;999.90;;;;;;;6.15;100.00;97430.66;5091540;28;20183;-68
2021/11/10 03:32:03;;;;;;;1999.90;999.90;;;;;;;6.13;100.00;97442.22;5091157;28;20199;-68
2021/11/10 03:34:30;;;;;;;1999.90;999.90;;;;;;;6.20;100.00;97437.75;5091368;28;20771;-68
2021/11/10 03:36:57;;;;;;;1999.90;999.90;;;;;;;6.13;100.00;97442.97;5091265;28;20686;-68
2021/11/10 03:39:24;;;;;;;1999.90;999.90;;;;;;;6.11;100.00;97449.38;5090900;28;20208;-68
2021/11/10 03:41:51;;;;;;;1999.90;999.90;;;;;;;6.08;100.00;97447.25;5090953;28;20217;-68
2021/11/10 03:44:19;;;;;;;1999.90;999.90;;;;;;;6.00;100.00;97443.94;5090871;28;20187;-68
2021/11/10 03:46:46;;;;;;;1999.90;999.90;;;;;;;5.93;100.00;97445.78;5090789;28;20210;-68
2021/11/10 03:49:15;;;;;;;1999.90;999.90;;;;;;;5.88;100.00;97450.00;5090864;28;20674;-68
2021/11/10 03:51:42;;;;;;;1999.90;999.90;;;;;;;5.84;100.00;97448.84;5091007;28;20229;-68
2021/11/10 03:54:10;;;;;;;1999.90;999.90;;;;;;;5.80;100.00;97447.69;5090696;28;20232;-68
2021/11/10 03:56:37;;;;;;;1999.90;999.90;;;;;;;5.75;100.00;97453.50;5090931;28;20188;-68
2021/11/10 03:59:05;;;;;;;1999.90;999.90;;;;;;;5.71;100.00;97449.78;5091058;28;20199;-68
2021/11/10 04:01:32;;;;;;;1999.90;999.90;;;;;;;5.75;100.00;97452.72;5090557;28;20575;-68
2021/11/10 04:03:59;;;;;;;1999.90;999.90;;;;;;;5.70;100.00;97453.34;5090927;28;20202;-69
2021/11/10 04:06:28;;;;;;;1999.90;999.90;;;;;;;5.61;100.00;97450.28;5090423;28;20732;-68
2021/11/10 04:08:55;;;;;;;1999.90;999.90;;;;;;;5.63;100.00;97448.25;5090747;28;20199;-68
2021/11/10 04:11:23;;;;;;;1999.90;999.90;;;;;;;5.64;100.00;97452.41;5090327;28;20581;-68
2021/11/10 04:13:51;;;;;;;1999.90;999.90;;;;;;;5.55;100.00;97445.16;5090221;28;20757;-69
2021/11/10 04:16:22;;;;;;;1999.90;999.90;;;;;;;5.54;100.00;97451.31;5090421;28;20247;-69
2021/11/10 04:18:51;;;;;;;1999.90;999.90;;;;;;;5.47;100.00;97453.19;5090179;28;20241;-68
2021/11/10 04:21:19;;;;;;;1999.90;999.90;;;;;;;5.44;100.00;97458.75;5090244;28;20742;-68
2021/11/10 04:23:50;;;;;;;1999.90;999.90;;;;;;;5.38;100.00;97460.38;5090347;28;20283;-69
2021/11/10 04:26:18;;;;;;;1999.90;999.90;;;;;;;5.32;100.00;97463.03;5090600;28;20184;-68
2021/11/10 04:28:46;;;;;;;1999.90;999.90;;;;;;;5.28;100.00;97464.47;5090106;28;20228;-68
2021/11/10 04:31:14;;;;;;;1999.90;999.90;;;;;;;5.27;100.00;97468.03;5090243;28;20195;-68
2021/11/10 04:33:42;;;;;;;1999.90;999.90;;;;;;;5.17;100.00;97465.94;5090169;28;20648;-69
2021/11/10 04:36:09;;;;;;;1999.90;999.90;;;;;;;5.18;100.00;97460.53;5090214;28;20204;-68
2021/11/10 04:38:36;;;;;;;1999.90;999.90;;;;;;;5.20;100.00;97465.50;5090122;28;20196;-68
2021/11/10 04:41:05;;;;;;;1999.90;999.90;;;;;;;5.18;100.00;97457.97;5090516;28;20257;-69
2021/11/10 04:43:32;;;;;;;1999.90;999.90;;;;;;;5.14;100.00;97459.38;5090063;28;20200;-69
2021/11/10 04:46:06;;;;;;;1999.90;999.90;;;;;;;5.11;100.00;97456.44;5090040;28;20278;-69
2021/11/10 04:48:35;;;;;;;1999.90;999.90;;;;;;;5.03;100.00;97460.06;5090247;28;20188;-68
2021/11/10 04:51:03;;;;;;;1999.90;999.90;;;;;;;4.99;100.00;97456.31;5090297;28;20214;-68
2021/11/10 04:53:30;;;;;;;1999.90;999.90;;;;;;;4.97;100.00;97463.50;5089997;28;20199;-68
2021/11/10 04:55:57;;;;;;;1999.90;999.90;;;;;;;4.92;100.00;97463.31;5090335;28;20277;-69
2021/11/10 04:58:26;;;;;;;1999.90;999.90;;;;;;;4.95;100.00;97462.91;5090278;28;20204;-68
2021/11/10 05:00:53;;;;;;;1999.90;999.90;;;;;;;5.03;100.00;97461.88;5090167;28;20254;-69
2021/11/10 05:03:20;;;;;;;1999.90;999.90;;;;;;;4.89;100.00;97466.31;5090112;28;20257;-68
2021/11/10 05:05:47;;;;;;;1999.90;999.90;;;;;;;4.95;100.00;97473.19;5089539;28;20214;-68
2021/11/10 05:08:13;;;;;;;1999.90;999.90;;;;;;;4.93;100.00;97474.44;5090282;28;20576;-68
2021/11/10 05:10:40;;;;;;;1999.90;999.90;;;;;;;4.97;100.00;97471.22;5089243;28;20286;-68
2021/11/10 05:13:08;;;;;;;1999.90;999.90;;;;;;;4.90;100.00;97473.03;5089848;28;20238;-68
2021/11/10 05:15:36;;;;;;;1999.90;999.90;;;;;;;4.88;100.00;97475.03;5090232;28;20275;-68
2021/11/10 05:18:03;;;;;;;1999.90;999.90;;;;;;;4.92;100.00;97470.25;5090333;28;20200;-68
2021/11/10 05:20:30;;;;;;;1999.90;999.90;;;;;;;4.96;100.00;97472.22;5089741;28;20206;-68
2021/11/10 05:22:57;;;;;;;1999.90;999.90;;;;;;;4.88;100.00;97475.03;5090000;28;20190;-68
2021/11/10 05:25:24;;;;;;;1999.90;999.90;;;;;;;4.87;100.00;97478.63;5089618;28;20742;-68
2021/11/10 05:27:51;;;;;;;1999.90;999.90;;;;;;;4.82;100.00;97483.59;5089721;28;20290;-68
2021/11/10 05:30:19;;;;;;;1999.90;999.90;;;;;;;4.78;100.00;97479.88;5089642;28;20224;-68
2021/11/10 05:32:47;;;;;;;1999.90;999.90;;;;;;;4.75;100.00;97482.84;5093291;28;20195;-68
2021/11/10 05:35:14;;;;;;;1999.90;999.90;;;;;;;4.75;100.00;97480.25;5093220;28;20228;-68
2021/11/10 05:37:41;;;;;;;1999.90;999.90;;;;;;;4.78;100.00;97475.47;5093608;28;20602;-68
2021/11/10 05:40:09;;;;;;;1999.90;999.90;;;;;;;4.74;100.00;97483.81;5093664;28;20227;-68
2021/11/10 05:42:37;;;;;;;1999.90;999.90;;;;;;;4.73;100.00;97487.41;5093138;28;20194;-68
2021/11/10 05:45:05;;;;;;;1999.90;999.90;;;;;;;4.81;100.00;97488.94;5093326;28;20282;-68
2021/11/10 05:47:32;;;;;;;1999.90;999.90;;;;;;;4.71;100.00;97490.19;5089858;28;20200;-68
2021/11/10 05:50:01;;;;;;;1999.90;999.90;;;;;;;4.71;100.00;97497.13;5084185;28;20203;-68
2021/11/10 05:52:28;;;;;;;1999.90;999.90;;;;;;;4.69;100.00;97501.69;5092974;28;20200;-68
2021/11/10 05:54:55;;;;;;;1999.90;999.90;;;;;;;4.68;100.00;97500.13;5093200;28;20227;-68
2021/11/10 05:57:22;;;;;;;1999.90;999.90;;;;;;;4.71;100.00;97503.06;5092781;28;20561;-68
2021/11/10 05:59:49;;;;;;;1999.90;999.90;;;;;;;4.82;100.00;97509.34;5093170;28;20200;-68
2021/11/10 06:02:19;;;;;;;1999.90;999.90;;;;;;;4.90;100.00;97514.25;5092576;28;20199;-68
2021/11/10 06:04:46;;;;;;;1999.90;999.90;;;;;;;4.97;100.00;97506.50;5092599;28;20200;-68
2021/11/10 06:07:15;;;;;;;1999.90;999.90;;;;;;;5.04;100.00;97513.19;5092612;28;20228;-68
2021/11/10 06:09:42;;;;;;;1999.90;999.90;;;;;;;5.25;100.00;97521.56;5093156;28;20200;-68
2021/11/10 06:12:10;;;;;;;1999.90;999.90;;;;;;;5.34;100.00;97522.88;5092580;28;20193;-67
2021/11/10 06:14:37;;;;;;;1999.90;999.90;;;;;;;5.43;100.00;97525.00;5092530;28;20266;-67
2021/11/10 06:17:05;;;;;;;1999.90;999.90;;;;;;;5.56;100.00;97526.69;5092512;28;20192;-68
2021/11/10 06:19:32;;;;;;;1999.90;999.90;;;;;;;5.72;100.00;97528.75;5092417;28;20231;-68
2021/11/10 06:21:59;;;;;;;1999.90;999.90;;;;;;;5.84;100.00;97524.44;5092489;28;20520;-68
2021/11/10 06:24:28;;;;;;;1999.90;999.90;;;;;;;5.94;100.00;97532.53;5092676;28;20200;-68
2021/11/10 06:26:55;;;;;;;1999.90;999.90;;;;;;;6.05;100.00;97529.25;5092120;28;20238;-68
2021/11/10 06:29:23;;;;;;;1999.90;999.90;;;;;;;6.09;99.85;97528.81;5092600;28;20659;-67
2021/11/10 06:31:50;;;;;;;1999.90;999.90;;;;;;;6.29;98.35;97524.22;5092675;28;20227;-68
2021/11/10 06:34:17;;;;;;;1999.90;999.90;;;;;;;6.34;97.72;97522.56;5092461;28;20248;-68
2021/11/10 06:36:44;;;;;;;1999.90;999.90;;;;;;;6.30;99.10;97536.13;5092386;28;20234;-68
2021/11/10 06:39:11;;;;;;;1999.90;999.90;;;;;;;6.40;98.93;97523.50;5092459;28;20235;-68
2021/11/10 06:41:40;;;;;;;1999.90;999.90;;;;;;;6.59;98.09;97527.66;5091984;28;20227;-68
2021/11/10 06:44:07;;;;;;;1999.90;999.90;;;;;;;6.66;98.07;97523.19;5092382;28;20201;-68
2021/11/10 06:46:34;;;;;;;1999.90;999.90;;;;;;;6.79;98.09;97530.78;5091952;28;20219;-68
2021/11/10 06:49:01;;;;;;;1999.90;999.90;;;;;;;6.79;98.59;97533.34;5092112;28;20384;-68
2021/11/10 06:51:28;;;;;;;1999.90;999.90;;;;;;;6.82;98.71;97534.72;5092167;28;20224;-68
2021/11/10 06:53:56;;;;;;;1999.90;999.90;;;;;;;6.92;98.49;97530.59;5092177;28;20235;-68
2021/11/10 06:56:22;;;;;;;1999.90;999.90;;;;;;;7.10;97.71;97531.56;5092145;28;20227;-68
2021/11/10 06:58:51;;;;;;;1999.90;999.90;;;;;;;7.22;96.37;97532.41;5091754;28;20286;-68
2021/11/10 07:01:18;;;;;;;1999.90;999.90;;;;;;;7.27;96.42;97532.53;5091721;28;20238;-68
2021/11/10 07:03:46;;;;;;;1999.90;999.90;;;;;;;7.44;95.14;97533.44;5091996;28;20191;-68
2021/11/10 07:06:13;;;;;;;1999.90;999.90;;;;;;;7.57;96.20;97529.88;5091549;28;20207;-68
2021/11/10 07:08:40;;;;;;;1999.90;999.90;;;;;;;7.60;95.85;97532.00;5091882;28;20230;-68
2021/11/10 07:11:07;;;;;;;1999.90;999.90;;;;;;;7.72;93.16;97536.16;5091518;28;20742;-68
2021/11/10 07:13:35;;;;;;;1999.90;999.90;;;;;;;7.71;92.48;97534.59;5091627;28;20253;-69
2021/11/10 07:16:04;;;;;;;1999.90;999.90;;;;;;;7.77;93.06;97543.28;5091790;28;20407;-68
2021/11/10 07:18:31;;;;;;;1999.90;999.90;;;;;;;7.89;91.82;97536.28;5091540;28;20640;-68
2021/11/10 07:20:58;;;;;;;1999.90;999.90;;;;;;;7.91;90.45;97541.25;5091247;28;20207;-68
2021/11/10 07:23:25;;;;;;;1999.90;999.90;;;;;;;8.01;90.11;97538.88;5091794;28;20291;-68
2021/11/10 07:25:52;;;;;;;1999.90;999.90;;;;;;;8.09;92.04;97541.91;5091511;28;20196;-68
2021/11/10 07:28:19;;;;;;;1999.90;999.90;;;;;;;8.06;89.71;97541.59;5091406;28;20235;-68
2021/11/10 07:30:46;;;;;;;1999.90;999.90;;;;;;;8.25;89.80;97534.47;5091523;28;20223;-68
2021/11/10 07:33:14;;;;;;;1999.90;999.90;;;;;;;8.12;88.67;97530.28;5091451;28;20196;-68
2021/11/10 07:35:42;;;;;;;1999.90;999.90;;;;;;;8.18;88.02;97537.16;5091089;28;20348;-69
2021/11/10 07:38:09;;;;;;;1999.90;999.90;;;;;;;8.27;89.33;97530.63;5091149;28;20720;-68
2021/11/10 07:40:37;;;;;;;1999.90;999.90;;;;;;;8.33;87.15;97527.16;5090959;28;20218;-69
2021/11/10 07:43:05;;;;;;;1999.90;999.90;;;;;;;8.53;87.69;97519.00;5091355;28;20279;-68
2021/11/10 07:45:34;;;;;;;1999.90;999.90;;;;;;;8.59;88.14;97518.88;5091209;28;20449;-68
2021/11/10 07:48:02;;;;;;;1999.90;999.90;;;;;;;8.50;87.33;97525.44;5091080;28;20238;-68
2021/11/10 07:50:32;;;;;;;1999.90;999.90;;;;;;;8.60;87.84;97528.22;5090821;28;20257;-67
2021/11/10 07:52:59;;;;;;;1999.90;999.90;;;;;;;8.78;84.70;97529.84;5090992;28;20679;-68
2021/11/10 07:55:27;;;;;;;1999.90;999.90;;;;;;;8.81;86.32;97526.00;5090174;28;20723;-67
2021/11/10 07:57:55;;;;;;;1999.90;999.90;;;;;;;8.77;83.03;97522.28;5091196;28;20242;-67
2021/11/10 08:00:23;;;;;;;1999.90;999.90;;;;;;;8.85;85.28;97522.72;5091027;28;20253;-68
2021/11/10 08:02:50;;;;;;;1999.90;999.90;;;;;;;8.95;85.18;97532.50;5090990;28;20239;-68
2021/11/10 08:05:18;;;;;;;1999.90;999.90;;;;;;;8.98;82.98;97527.63;5090538;28;20245;-68
2021/11/10 08:07:46;;;;;;;1999.90;999.90;;;;;;;8.94;82.97;97528.31;5090883;28;20232;-68
2021/11/10 08:10:15;;;;;;;1999.90;999.90;;;;;;;8.94;82.59;97526.50;5091036;28;20276;-68
2021/11/10 08:12:42;;;;;;;1999.90;999.90;;;;;;;9.04;82.17;97518.13;5090817;28;20227;-68
2021/11/10 08:15:11;;;;;;;1999.90;999.90;;;;;;;9.02;81.59;97515.75;5090865;28;20269;-68
2021/11/10 08:17:38;;;;;;;1999.90;999.90;;;;;;;9.12;81.33;97522.91;5090833;28;20291;-68
2021/11/10 08:20:08;;;;;;;1999.90;999.90;;;;;;;9.09;80.69;97520.81;5091129;28;20227;-68
2021/11/10 08:22:35;;;;;;;1999.90;999.90;;;;;;;9.19;79.72;97515.78;5090634;28;20253;-67
2021/11/10 08:25:05;;;;;;;1999.90;999.90;;;;;;;9.14;79.15;97513.09;5090458;28;20291;-67
2021/11/10 08:27:35;;;;;;;1999.90;999.90;;;;;;;9.16;78.44;97521.47;5090218;28;20234;-68
2021/11/10 08:30:02;;;;;;;1999.90;999.90;;;;;;;9.28;79.37;97514.38;5090643;28;20200;-69
2021/11/10 08:32:29;;;;;;;1999.90;999.90;;;;;;;9.49;79.34;97520.69;5090244;28;20248;-69
2021/11/10 08:34:56;;;;;;;1999.90;999.90;;;;;;;9.49;77.44;97516.28;5090181;28;20582;-69
2021/11/10 08:37:23;;;;;;;1999.90;999.90;;;;;;;9.64;77.24;97513.13;5090202;28;20196;-69
2021/11/10 08:39:50;;;;;;;1999.90;999.90;;;;;;;9.42;74.80;97526.03;5090258;28;20744;-68
2021/11/10 08:42:18;;;;;;;1999.90;999.90;;;;;;;9.41;75.20;97514.06;5090575;28;20272;-69
2021/11/10 08:44:47;;;;;;;1999.90;999.90;;;;;;;9.48;77.08;97512.09;5090236;28;20203;-69
2021/11/10 08:47:15;;;;;;;1999.90;999.90;;;;;;;9.66;76.30;97510.31;5090448;28;20249;-68
2021/11/10 08:49:42;;;;;;;1999.90;999.90;;;;;;;9.69;74.71;97515.00;5090397;28;20256;-68
2021/11/10 08:52:11;;;;;;;1999.90;999.90;;;;;;;9.72;74.78;97499.75;5090408;28;20663;-68
2021/11/10 08:54:38;;;;;;;1999.90;999.90;;;;;;;9.71;74.17;97507.78;5090156;28;20257;-68
2021/11/10 08:57:06;;;;;;;1999.90;999.90;;;;;;;9.83;72.18;97506.66;5090231;28;20284;-68
2021/11/10 08:59:34;;;;;;;1999.90;999.90;;;;;;;9.76;73.69;97513.06;5090042;28;20196;-68
2021/11/10 09:02:02;;;;;;;1999.90;999.90;;;;;;;9.78;74.96;97504.00;5090264;28;20601;-68
2021/11/10 09:04:29;;;;;;;1999.90;999.90;;;;;;;9.78;74.43;97490.22;5089983;28;20645;-68
2021/11/10 09:06:56;;;;;;;1999.90;999.90;;;;;;;9.75;71.88;97494.09;5093946;28;20196;-69
2021/11/10 09:09:23;;;;;;;1999.90;999.90;;;;;;;9.82;73.07;97494.69;5093968;28;20196;-68
2021/11/10 09:11:51;;;;;;;1999.90;999.90;;;;;;;10.08;71.30;97482.03;5094290;28;20725;-68
2021/11/10 09:14:19;;;;;;;1999.90;999.90;;;;;;;10.12;73.55;97473.53;5094302;28;20204;-68
2021/11/10 09:16:48;;;;;;;1999.90;999.90;;;;;;;10.13;72.63;97487.31;5093590;28;20219;-69
2021/11/10 09:19:15;;;;;;;1999.90;999.90;;;;;;;9.92;73.29;97486.25;5094167;28;20248;-69
2021/11/10 09:21:43;;;;;;;1999.90;999.90;;;;;;;9.87;73.39;97486.19;5093794;28;20256;-68
2021/11/10 09:24:11;;;;;;;1999.90;999.90;;;;;;;10.09;73.11;97484.41;5093935;28;20233;-69
2021/11/10 09:26:39;;;;;;;1999.90;999.90;;;;;;;10.10;71.11;97487.78;5093583;28;20203;-68
2021/11/10 09:29:07;;;;;;;1999.90;999.90;;;;;;;10.14;71.43;97483.69;5093596;28;20310;-68
2021/11/10 09:31:36;;;;;;;1999.90;999.90;;;;;;;10.27;72.02;97471.16;5093578;28;20192;-68
2021/11/10 09:34:07;;;;;;;1999.90;999.90;;;;;;;10.39;72.19;97468.44;5093862;28;20257;-69
2021/11/10 09:36:35;;;;;;;1999.90;999.90;;;;;;;10.40;71.42;97470.00;5093328;28;20203;-69
2021/11/10 09:39:02;;;;;;;1999.90;999.90;;;;;;;10.38;72.34;97460.88;5093421;28;20199;-69
2021/11/10 09:41:30;;;;;;;1999.90;999.90;;;;;;;10.34;72.37;97458.75;5093346;28;20200;-69
2021/11/10 09:43:59;;;;;;;1999.90;999.90;;;;;;;10.51;73.01;97455.31;5093315;28;20675;-69
2021/11/10 09:46:27;;;;;;;1999.90;999.90;;;;;;;10.77;71.17;97451.91;5093244;28;20632;-68
2021/11/10 09:48:57;;;;;;;1999.90;999.90;;;;;;;10.84;70.19;97460.31;5093625;28;20199;-68
2021/11/10 09:51:26;;;;;;;1999.90;999.90;;;;;;;10.76;70.12;97448.53;5093450;28;20203;-68
2021/11/10 09:53:53;;;;;;;1999.90;999.90;;;;;;;10.81;70.95;97447.78;5093417;28;20254;-68
2021/11/10 09:56:23;;;;;;;1999.90;999.90;;;;;;;10.90;70.85;97454.13;5093283;28;20707;-68
2021/11/10 09:58:51;;;;;;;1999.90;999.90;;;;;;;10.81;70.86;97439.97;5093057;28;20245;-68
2021/11/10 10:01:18;;;;;;;1999.90;999.90;;;;;;;10.81;70.65;97441.81;5093087;28;20196;-68
2021/11/10 10:03:47;;;;;;;1999.90;999.90;;;;;;;10.75;68.22;97454.78;5093464;28;20196;-68
2021/11/10 10:06:15;;;;;;;1999.90;999.90;;;;;;;10.68;71.46;97430.00;5092838;28;20304;-68
2021/11/10 10:08:45;;;;;;;1999.90;999.90;;;;;;;10.83;71.78;97427.53;5092799;28;20235;-68
2021/11/10 10:11:12;;;;;;;1999.90;999.90;;;;;;;10.88;69.04;97434.59;5093133;28;20602;-68
2021/11/10 10:13:40;;;;;;;1999.90;999.90;;;;;;;10.82;69.06;97415.56;5092818;28;20203;-68
2021/11/10 10:16:08;;;;;;;1999.90;999.90;;;;;;;10.77;69.57;97418.91;5092978;28;20695;-68
2021/11/10 10:18:36;;;;;;;1999.90;999.90;;;;;;;10.77;69.14;97416.28;5092362;28;20261;-68
2021/11/10 10:21:05;;;;;;;1999.90;999.90;;;;;;;10.76;72.26;97414.72;5092646;28;20661;-69
2021/11/10 10:23:34;;;;;;;1999.90;999.90;;;;;;;10.78;70.95;97411.88;5092890;28;20196;-69
2021/11/10 10:26:07;;;;;;;1999.90;999.90;;;;;;;10.85;69.52;97417.69;5092980;28;20196;-69
2021/11/10 10:28:37;;;;;;;1999.90;999.90;;;;;;;10.99;70.96;97408.44;5092340;28;20232;-69
2021/11/10 10:31:07;;;;;;;1999.90;999.90;;;;;;;11.19;68.56;97398.16;5092890;28;20269;-68
2021/11/10 10:33:36;;;;;;;1999.90;999.90;;;;;;;11.19;69.81;97411.19;5092303;28;20204;-68
2021/11/10 10:36:07;;;;;;;1999.90;999.90;;;;;;;11.37;66.34;97396.19;5092440;28;20637;-68
2021/11/10 10:38:37;;;;;;;1999.90;999.90;;;;;;;11.05;68.30;97399.63;5092460;28;20188;-69
2021/11/10 10:41:08;;;;;;;1999.90;999.90;;;;;;;11.00;67.80;97391.00;5092592;28;20614;-69
2021/11/10 10:43:40;;;;;;;1999.90;999.90;;;;;;;11.04;67.00;97387.66;5092143;28;20241;-69
2021/11/10 10:46:08;;;;;;;1999.90;999.90;;;;;;;10.87;68.62;97394.78;5092152;28;20184;-69
2021/11/10 10:48:36;;;;;;;1999.90;999.90;;;;;;;11.05;68.43;97389.22;5092083;28;20199;-69
2021/11/10 10:51:06;;;;;;;1999.90;999.90;;;;;;;11.10;68.60;97383.28;5092078;28;20230;-69
2021/11/10 10:53:37;;;;;;;1999.90;999.90;;;;;;;11.15;66.08;97368.47;5092296;28;20231;-69
2021/11/10 10:56:17;;;;;;;1999.90;999.90;;;;;;;11.27;68.26;97367.50;5092279;28;20214;-69
2021/11/10 10:58:46;;;;;;;1999.90;999.90;;;;;;;11.56;66.71;97369.47;5092014;28;20196;-69
2021/11/10 11:01:35;;;;;;;1999.90;999.90;;;;;;;11.38;67.23;97366.53;5091937;28;20200;-68